Time;durP1;ratioP1;P1;durP2;ratioP2;P2;SDS_P1;SDS_P2;PMS_P1;PMS_P2;Temp;Humidity;BMP_temperature;BMP_pressure;BME280_temperature;BME280_humidity;BME280_pressure;Samples;Min_cycle;Max_cycle;Signal;HPM_P1;HPM_P2
2023/05/07 00:01:59;;;;;;;;;;;20.40;44.80;;;;;;5077082;28;19924;-59
2023/05/07 00:04:27;;;;;;;;;;;20.40;44.70;;;;;;5078697;28;19920;-58
2023/05/07 00:06:55;;;;;;;;;;;20.40;44.70;;;;;;5078497;28;19926;-57
2023/05/07 00:09:21;;;;;;;;;;;20.40;44.70;;;;;;5079113;28;19920;-59
2023/05/07 00:11:48;;;;;;;;;;;20.40;44.70;;;;;;5078651;28;19924;-59
2023/05/07 00:14:15;;;;;;;;;;;20.40;44.70;;;;;;5079664;28;19920;-59
2023/05/07 00:16:43;;;;;;;;;;;20.40;44.70;;;;;;5095998;28;19927;-60
2023/05/07 00:19:10;;;;;;;;;;;20.40;44.70;;;;;;5076605;28;20362;-59
2023/05/07 00:21:37;;;;;;;;;;;20.40;44.80;;;;;;5078707;28;19924;-57
2023/05/07 00:24:04;;;;;;;;;;;20.40;44.80;;;;;;5076337;28;19957;-60
2023/05/07 00:26:31;;;;;;;;;;;20.40;44.80;;;;;;5076417;28;19926;-61
2023/05/07 00:28:58;;;;;;;;;;;20.40;44.70;;;;;;5078034;28;19927;-60
2023/05/07 00:31:24;;;;;;;;;;;20.40;44.70;;;;;;5095622;28;19920;-60
2023/05/07 00:33:54;;;;;;;;;;;20.40;44.70;;;;;;5078932;28;19920;-59
2023/05/07 00:36:21;;;;;;;;;;;20.40;44.70;;;;;;5075222;28;19920;-60
2023/05/07 00:38:47;;;;;;;;;;;20.30;44.60;;;;;;5095252;28;19924;-59
2023/05/07 00:41:14;;;;;;;;;;;20.40;44.80;;;;;;5091075;28;19924;-60
2023/05/07 00:43:41;;;;;;;;;;;20.40;44.80;;;;;;5090281;28;19920;-60
2023/05/07 00:46:07;;;;;;;;;;;20.40;44.80;;;;;;5091796;28;19978;-60
2023/05/07 00:48:34;;;;;;;;;;;20.40;44.70;;;;;;5075553;28;19956;-60
2023/05/07 00:51:02;;;;;;;;;;;20.40;44.80;;;;;;5074488;28;19947;-60
2023/05/07 00:53:30;;;;;;;;;;;20.40;44.80;;;;;;5075871;28;19920;-60
2023/05/07 00:55:57;;;;;;;;;;;20.40;44.80;;;;;;5091043;28;19926;-59
2023/05/07 00:58:23;;;;;;;;;;;20.40;44.80;;;;;;5091178;28;19965;-60
2023/05/07 01:00:50;;;;;;;;;;;20.40;45.40;;;;;;5092732;28;19920;-60
2023/05/07 01:03:17;;;;;;;;;;;20.40;44.80;;;;;;5091311;28;19924;-60
2023/05/07 01:05:43;;;;;;;;;;;20.40;44.80;;;;;;5073935;28;19920;-60
2023/05/07 01:08:12;;;;;;;;;;;20.40;44.80;;;;;;5075842;28;19982;-60
2023/05/07 01:10:42;;;;;;;;;;;20.30;44.70;;;;;;5075791;28;19920;-60
2023/05/07 01:13:09;;;;;;;;;;;20.40;44.80;;;;;;5073865;28;19939;-60
2023/05/07 01:15:36;;;;;;;;;;;20.40;44.80;;;;;;5075989;28;20018;-60
2023/05/07 01:18:03;;;;;;;;;;;20.40;44.80;;;;;;5076266;28;19920;-60
2023/05/07 01:20:30;;;;;;;;;;;20.40;44.80;;;;;;5091508;28;19920;-59
2023/05/07 01:22:58;;;;;;;;;;;20.40;44.80;;;;;;5092634;28;19927;-59
2023/05/07 01:25:25;;;;;;;;;;;20.30;44.70;;;;;;5089771;28;19966;-60
2023/05/07 01:27:52;;;;;;;;;;;20.40;44.90;;;;;;5092140;28;19924;-60
2023/05/07 01:30:19;;;;;;;;;;;20.40;44.80;;;;;;5072609;28;19927;-60
2023/05/07 01:32:47;;;;;;;;;;;20.40;44.90;;;;;;5072111;28;19920;-60
2023/05/07 01:35:15;;;;;;;;;;;20.40;44.90;;;;;;5073172;28;19920;-60
2023/05/07 01:37:41;;;;;;;;;;;20.40;44.80;;;;;;5090541;28;19973;-60
2023/05/07 01:40:13;;;;;;;;;;;20.40;44.90;;;;;;5072532;28;19978;-60
2023/05/07 01:42:39;;;;;;;;;;;20.40;44.90;;;;;;5091497;28;19973;-60
2023/05/07 01:45:07;;;;;;;;;;;20.40;44.80;;;;;;5073071;28;19931;-60
2023/05/07 01:47:33;;;;;;;;;;;20.30;44.80;;;;;;5091491;28;19920;-60
2023/05/07 01:50:00;;;;;;;;;;;20.30;44.80;;;;;;5093978;28;19935;-60
2023/05/07 01:52:27;;;;;;;;;;;20.40;44.90;;;;;;5094020;28;20309;-60
2023/05/07 01:54:54;;;;;;;;;;;20.40;44.90;;;;;;5075954;28;19927;-60
2023/05/07 01:57:22;;;;;;;;;;;20.40;44.90;;;;;;5093436;28;19924;-60
2023/05/07 01:59:49;;;;;;;;;;;20.40;44.90;;;;;;5076808;28;19927;-60
2023/05/07 02:02:16;;;;;;;;;;;20.30;44.80;;;;;;5076746;28;19920;-60
2023/05/07 02:04:42;;;;;;;;;;;20.40;44.90;;;;;;5075524;28;19924;-60
2023/05/07 02:07:09;;;;;;;;;;;20.40;44.90;;;;;;5094730;28;19920;-59
2023/05/07 02:09:36;;;;;;;;;;;20.40;44.90;;;;;;5094397;28;19926;-59
2023/05/07 02:12:03;;;;;;;;;;;20.40;44.90;;;;;;5076892;28;19966;-60
2023/05/07 02:14:31;;;;;;;;;;;20.30;44.80;;;;;;5093234;28;19924;-60
2023/05/07 02:16:58;;;;;;;;;;;20.30;44.80;;;;;;5093557;28;19920;-59
2023/05/07 02:19:25;;;;;;;;;;;20.30;44.80;;;;;;5094654;28;19965;-60
2023/05/07 02:21:52;;;;;;;;;;;20.40;44.90;;;;;;5094820;28;19920;-60
2023/05/07 02:24:19;;;;;;;;;;;20.30;44.80;;;;;;5079202;28;19969;-59
2023/05/07 02:26:46;;;;;;;;;;;20.40;44.90;;;;;;5079485;28;19920;-59
2023/05/07 02:29:12;;;;;;;;;;;20.30;44.80;;;;;;5076984;28;19920;-60
2023/05/07 02:31:40;;;;;;;;;;;20.30;44.80;;;;;;5095218;28;19924;-60
2023/05/07 02:34:07;;;;;;;;;;;20.30;44.80;;;;;;5075611;28;19920;-60
2023/05/07 02:36:34;;;;;;;;;;;20.30;44.80;;;;;;5076431;28;19920;-60
2023/05/07 02:39:02;;;;;;;;;;;20.30;44.80;;;;;;5076091;28;19920;-60
2023/05/07 02:41:29;;;;;;;;;;;20.30;44.80;;;;;;5096930;28;19931;-60
2023/05/07 02:43:55;;;;;;;;;;;20.30;44.80;;;;;;5096524;28;19920;-59
2023/05/07 02:46:22;;;;;;;;;;;20.30;44.80;;;;;;5095773;28;20259;-59
2023/05/07 02:48:50;;;;;;;;;;;20.30;44.80;;;;;;5078386;28;19924;-59
2023/05/07 02:51:18;;;;;;;;;;;20.30;44.80;;;;;;5074234;28;20336;-60
2023/05/07 02:53:45;;;;;;;;;;;20.30;44.80;;;;;;5093693;28;19973;-60
2023/05/07 02:56:12;;;;;;;;;;;20.30;44.80;;;;;;5076015;28;19965;-60
2023/05/07 02:58:39;;;;;;;;;;;20.30;44.80;;;;;;5077653;28;19970;-59
2023/05/07 03:01:06;;;;;;;;;;;20.30;44.80;;;;;;5094819;28;19924;-59
2023/05/07 03:03:33;;;;;;;;;;;20.30;44.80;;;;;;5076227;28;19927;-60
2023/05/07 03:06:01;;;;;;;;;;;20.30;44.80;;;;;;5073990;28;19924;-60
2023/05/07 03:08:31;;;;;;;;;;;20.30;44.80;;;;;;5075828;28;19972;-60
2023/05/07 03:10:58;;;;;;;;;;;20.30;44.80;;;;;;5092094;28;19927;-60
2023/05/07 03:13:25;;;;;;;;;;;20.30;44.80;;;;;;5077763;28;19920;-60
2023/05/07 03:15:51;;;;;;;;;;;20.30;44.80;;;;;;5077730;28;19924;-59
2023/05/07 03:18:18;;;;;;;;;;;20.30;44.80;;;;;;5095782;28;19966;-60
2023/05/07 03:20:45;;;;;;;;;;;20.30;44.80;;;;;;5092612;28;19920;-60
2023/05/07 03:23:13;;;;;;;;;;;20.30;44.80;;;;;;5074004;28;19935;-60
2023/05/07 03:25:40;;;;;;;;;;;20.30;44.80;;;;;;5095829;28;19927;-59
2023/05/07 03:28:07;;;;;;;;;;;20.30;44.80;;;;;;5094424;28;19970;-60
2023/05/07 03:30:33;;;;;;;;;;;20.30;44.80;;;;;;5094263;28;19973;-59
2023/05/07 03:33:00;;;;;;;;;;;20.30;44.80;;;;;;5094588;28;19985;-59
2023/05/07 03:35:27;;;;;;;;;;;20.30;44.80;;;;;;5092501;28;19920;-61
2023/05/07 03:37:54;;;;;;;;;;;20.30;44.80;;;;;;5078264;28;19920;-59
2023/05/07 03:40:22;;;;;;;;;;;20.30;44.80;;;;;;5077771;28;19920;-59
2023/05/07 03:42:48;;;;;;;;;;;20.30;44.80;;;;;;5077910;28;20243;-59
2023/05/07 03:45:15;;;;;;;;;;;20.30;44.80;;;;;;5077204;28;19920;-59
2023/05/07 03:47:42;;;;;;;;;;;20.30;44.80;;;;;;5093445;28;19927;-60
2023/05/07 03:50:10;;;;;;;;;;;20.30;45.40;;;;;;5092512;28;19920;-59
2023/05/07 03:52:37;;;;;;;;;;;20.30;44.80;;;;;;5077276;28;19984;-59
2023/05/07 03:55:04;;;;;;;;;;;20.30;44.80;;;;;;5094707;28;20022;-59
2023/05/07 03:57:32;;;;;;;;;;;20.30;44.80;;;;;;5077278;28;19924;-59
2023/05/07 03:59:59;;;;;;;;;;;20.30;44.80;;;;;;5076982;28;19920;-59
2023/05/07 04:02:25;;;;;;;;;;;20.30;44.80;;;;;;5076730;28;19970;-59
2023/05/07 04:04:52;;;;;;;;;;;20.30;44.80;;;;;;5077168;28;19920;-59
2023/05/07 04:07:19;;;;;;;;;;;20.30;44.80;;;;;;5074925;28;19920;-58
2023/05/07 04:09:46;;;;;;;;;;;20.30;44.80;;;;;;5095193;28;19973;-58
2023/05/07 04:12:13;;;;;;;;;;;20.30;44.80;;;;;;5093887;28;19920;-59
2023/05/07 04:14:41;;;;;;;;;;;20.30;44.80;;;;;;5076600;28;20382;-59
2023/05/07 04:17:09;;;;;;;;;;;20.30;44.80;;;;;;5076364;28;19927;-59
2023/05/07 04:19:36;;;;;;;;;;;20.30;44.80;;;;;;5076933;28;19926;-59
2023/05/07 04:22:03;;;;;;;;;;;20.30;44.80;;;;;;5073885;28;19920;-59
2023/05/07 04:24:31;;;;;;;;;;;20.30;44.80;;;;;;5075308;28;19974;-59
2023/05/07 04:26:58;;;;;;;;;;;20.30;44.80;;;;;;5076448;28;20005;-59
2023/05/07 04:29:25;;;;;;;;;;;20.30;44.80;;;;;;5076678;28;19920;-59
2023/05/07 04:31:55;;;;;;;;;;;20.30;44.80;;;;;;5074727;28;19926;-59
2023/05/07 04:34:22;;;;;;;;;;;20.30;44.80;;;;;;5091872;28;19920;-59
2023/05/07 04:36:49;;;;;;;;;;;20.30;44.80;;;;;;5091506;28;19920;-59
2023/05/07 04:39:16;;;;;;;;;;;20.30;44.80;;;;;;5092761;28;20275;-59
2023/05/07 04:41:42;;;;;;;;;;;20.30;44.80;;;;;;5093129;28;20300;-59
2023/05/07 04:44:10;;;;;;;;;;;20.30;44.80;;;;;;5094269;28;19943;-59
2023/05/07 04:46:37;;;;;;;;;;;20.30;44.80;;;;;;5093875;28;19963;-59
2023/05/07 04:49:05;;;;;;;;;;;20.30;44.80;;;;;;5075984;28;19920;-59
2023/05/07 04:51:33;;;;;;;;;;;20.30;44.80;;;;;;5093993;28;19920;-59
2023/05/07 04:53:59;;;;;;;;;;;20.30;44.80;;;;;;5088610;28;19920;-60
2023/05/07 04:56:28;;;;;;;;;;;20.30;44.80;;;;;;5091742;28;19920;-59
2023/05/07 04:58:55;;;;;;;;;;;20.30;44.80;;;;;;5073899;28;19924;-59
2023/05/07 05:01:21;;;;;;;;;;;20.30;44.80;;;;;;5072893;28;19920;-59
2023/05/07 05:03:48;;;;;;;;;;;20.30;44.80;;;;;;5090416;28;20250;-61
2023/05/07 05:06:16;;;;;;;;;;;20.30;44.80;;;;;;5074484;28;19993;-59
2023/05/07 05:08:43;;;;;;;;;;;20.30;44.80;;;;;;5073031;28;19942;-59
2023/05/07 05:11:10;;;;;;;;;;;20.30;44.80;;;;;;5072736;28;19963;-60
2023/05/07 05:13:37;;;;;;;;;;;20.30;44.80;;;;;;5091296;28;19920;-60
2023/05/07 05:16:04;;;;;;;;;;;20.30;44.80;;;;;;5091617;28;19920;-59
2023/05/07 05:18:32;;;;;;;;;;;20.30;44.80;;;;;;5073065;28;19954;-59
2023/05/07 05:20:59;;;;;;;;;;;20.30;44.80;;;;;;5073230;28;19924;-60
2023/05/07 05:23:27;;;;;;;;;;;20.30;44.80;;;;;;5075762;28;19966;-59
2023/05/07 05:25:56;;;;;;;;;;;20.30;44.80;;;;;;5077545;28;19955;-59
2023/05/07 05:28:22;;;;;;;;;;;20.30;44.80;;;;;;5076472;28;20273;-59
2023/05/07 05:30:49;;;;;;;;;;;20.30;44.80;;;;;;5095557;28;19924;-59
2023/05/07 05:33:16;;;;;;;;;;;20.30;44.70;;;;;;5078389;28;19920;-59
2023/05/07 05:35:43;;;;;;;;;;;20.30;44.70;;;;;;5095480;28;19963;-59
2023/05/07 05:38:09;;;;;;;;;;;20.30;44.80;;;;;;5080084;28;19966;-59
2023/05/07 05:40:38;;;;;;;;;;;20.30;44.80;;;;;;5097534;28;19962;-59
2023/05/07 05:43:04;;;;;;;;;;;20.30;44.80;;;;;;5096705;28;19974;-59
2023/05/07 05:45:31;;;;;;;;;;;20.30;44.80;;;;;;5097625;28;19931;-59
2023/05/07 05:47:58;;;;;;;;;;;20.30;44.80;;;;;;5096615;28;19959;-59
2023/05/07 05:50:25;;;;;;;;;;;20.30;44.80;;;;;;5077657;28;20015;-59
2023/05/07 05:52:51;;;;;;;;;;;20.30;44.80;;;;;;5077368;28;19985;-60
2023/05/07 05:55:18;;;;;;;;;;;20.30;44.80;;;;;;5079369;28;19959;-59
2023/05/07 05:57:47;;;;;;;;;;;20.30;44.80;;;;;;5096057;28;19920;-60
2023/05/07 06:00:14;;;;;;;;;;;20.30;44.80;;;;;;5095466;28;19920;-60
2023/05/07 06:02:43;;;;;;;;;;;20.30;44.80;;;;;;5079611;28;20022;-60
2023/05/07 06:05:10;;;;;;;;;;;20.30;44.80;;;;;;5097136;28;19927;-60
2023/05/07 06:07:37;;;;;;;;;;;20.30;44.80;;;;;;5077549;28;19959;-60
2023/05/07 06:10:03;;;;;;;;;;;20.30;44.80;;;;;;5078933;28;20102;-60
2023/05/07 06:12:30;;;;;;;;;;;20.30;44.80;;;;;;5077171;28;19947;-60
2023/05/07 06:14:58;;;;;;;;;;;20.30;44.80;;;;;;5095877;28;20008;-60
2023/05/07 06:17:25;;;;;;;;;;;20.30;44.80;;;;;;5096663;28;19920;-59
2023/05/07 06:19:52;;;;;;;;;;;20.30;44.80;;;;;;5093919;28;19953;-59
2023/05/07 06:22:18;;;;;;;;;;;20.30;44.80;;;;;;5096319;28;19920;-60
2023/05/07 06:24:46;;;;;;;;;;;20.30;44.80;;;;;;5079453;28;19966;-60
2023/05/07 06:27:12;;;;;;;;;;;20.30;44.80;;;;;;5094160;28;20023;-59
2023/05/07 06:29:39;;;;;;;;;;;20.30;44.80;;;;;;5078535;28;19973;-59
2023/05/07 06:32:11;;;;;;;;;;;20.30;44.80;;;;;;5078256;28;19920;-59
2023/05/07 06:34:37;;;;;;;;;;;20.30;44.80;;;;;;5093419;28;19927;-60
2023/05/07 06:37:04;;;;;;;;;;;20.30;44.80;;;;;;5095269;28;19920;-59
2023/05/07 06:39:31;;;;;;;;;;;20.30;44.90;;;;;;5095745;28;19920;-59
2023/05/07 06:41:57;;;;;;;;;;;20.30;44.80;;;;;;5078479;28;19920;-59
2023/05/07 06:44:24;;;;;;;;;;;20.30;44.80;;;;;;5096058;28;19921;-59
2023/05/07 06:46:51;;;;;;;;;;;20.30;44.80;;;;;;5078261;28;19920;-59
2023/05/07 06:49:19;;;;;;;;;;;20.30;44.80;;;;;;5095379;28;19927;-59
2023/05/07 06:51:46;;;;;;;;;;;20.30;44.80;;;;;;5078642;28;19927;-59
2023/05/07 06:54:13;;;;;;;;;;;20.30;44.80;;;;;;5075552;28;19969;-61
2023/05/07 06:56:40;;;;;;;;;;;20.30;44.80;;;;;;5095020;28;20026;-60
2023/05/07 06:59:06;;;;;;;;;;;20.30;44.80;;;;;;5094928;28;19920;-60
2023/05/07 07:01:33;;;;;;;;;;;20.30;44.80;;;;;;5078056;28;19924;-60
2023/05/07 07:04:00;;;;;;;;;;;20.30;44.80;;;;;;5078037;28;19970;-60
2023/05/07 07:06:29;;;;;;;;;;;20.30;44.80;;;;;;5078021;28;19943;-60
2023/05/07 07:08:56;;;;;;;;;;;20.30;44.80;;;;;;5078443;28;20015;-60
2023/05/07 07:11:22;;;;;;;;;;;20.30;44.90;;;;;;5077920;28;19924;-60
2023/05/07 07:13:50;;;;;;;;;;;20.30;44.80;;;;;;5078171;28;19967;-60
2023/05/07 07:16:17;;;;;;;;;;;20.30;44.80;;;;;;5077682;28;19973;-60
2023/05/07 07:18:43;;;;;;;;;;;20.30;44.80;;;;;;5078610;28;19924;-60
2023/05/07 07:21:10;;;;;;;;;;;20.30;44.80;;;;;;5078590;28;19924;-60
2023/05/07 07:23:38;;;;;;;;;;;20.30;44.80;;;;;;5077686;28;19920;-60
2023/05/07 07:26:06;;;;;;;;;;;20.30;44.80;;;;;;5077264;28;19935;-60
2023/05/07 07:28:33;;;;;;;;;;;20.30;44.80;;;;;;5094307;28;19984;-60
2023/05/07 07:30:59;;;;;;;;;;;20.30;44.80;;;;;;5094141;28;19927;-60
2023/05/07 07:33:26;;;;;;;;;;;20.30;44.80;;;;;;5095451;28;19924;-60
2023/05/07 07:35:53;;;;;;;;;;;20.30;44.80;;;;;;5092115;28;19924;-60
2023/05/07 07:38:20;;;;;;;;;;;20.30;44.80;;;;;;5077329;28;19924;-60
2023/05/07 07:40:49;;;;;;;;;;;20.30;44.80;;;;;;5094585;28;19920;-60
2023/05/07 07:43:16;;;;;;;;;;;20.30;44.80;;;;;;5077124;28;19934;-60
2023/05/07 07:45:43;;;;;;;;;;;20.30;44.80;;;;;;5074236;28;19960;-61
2023/05/07 07:48:10;;;;;;;;;;;20.30;44.80;;;;;;5091907;28;19943;-60
2023/05/07 07:50:38;;;;;;;;;;;20.30;44.80;;;;;;5073800;28;20050;-60
2023/05/07 07:53:05;;;;;;;;;;;20.30;44.70;;;;;;5072942;28;19955;-60
2023/05/07 07:55:32;;;;;;;;;;;20.30;44.70;;;;;;5094480;28;19923;-59
2023/05/07 07:58:00;;;;;;;;;;;20.30;44.70;;;;;;5076705;28;19920;-59
2023/05/07 08:00:27;;;;;;;;;;;20.30;44.70;;;;;;5093430;28;19921;-60
2023/05/07 08:02:53;;;;;;;;;;;20.30;44.70;;;;;;5072228;28;19993;-60
2023/05/07 08:05:20;;;;;;;;;;;20.30;44.70;;;;;;5091716;28;19928;-60
2023/05/07 08:07:51;;;;;;;;;;;20.30;44.60;;;;;;5089941;28;19969;-60
2023/05/07 08:10:20;;;;;;;;;;;20.30;44.60;;;;;;5087092;28;20370;-60
2023/05/07 08:12:47;;;;;;;;;;;20.30;44.60;;;;;;5073040;28;19920;-60
2023/05/07 08:15:16;;;;;;;;;;;20.30;44.60;;;;;;5073999;28;19963;-60
2023/05/07 08:17:42;;;;;;;;;;;20.30;44.60;;;;;;5065045;28;19966;-60
2023/05/07 08:20:09;;;;;;;;;;;20.30;44.60;;;;;;5082873;28;19920;-60
2023/05/07 08:22:36;;;;;;;;;;;20.30;44.60;;;;;;5073191;28;19927;-60
2023/05/07 08:25:03;;;;;;;;;;;20.30;44.60;;;;;;5090043;28;19920;-60
2023/05/07 08:27:30;;;;;;;;;;;20.30;44.60;;;;;;5091695;28;20378;-60
2023/05/07 08:29:56;;;;;;;;;;;20.30;44.60;;;;;;5092718;28;19964;-59
2023/05/07 08:32:24;;;;;;;;;;;20.30;44.60;;;;;;5091333;28;19942;-60
2023/05/07 08:34:51;;;;;;;;;;;20.30;44.60;;;;;;5074399;28;19920;-59
2023/05/07 08:37:18;;;;;;;;;;;20.30;44.60;;;;;;5065932;28;19920;-59
2023/05/07 08:39:45;;;;;;;;;;;20.30;44.60;;;;;;5091293;28;19928;-59
2023/05/07 08:42:12;;;;;;;;;;;20.30;44.50;;;;;;5089429;28;19943;-59
2023/05/07 08:44:38;;;;;;;;;;;20.30;44.60;;;;;;5092715;28;19920;-59
2023/05/07 08:47:06;;;;;;;;;;;20.30;44.60;;;;;;5092637;28;20418;-60
2023/05/07 08:49:34;;;;;;;;;;;20.30;44.50;;;;;;5090825;28;20428;-59
2023/05/07 08:52:01;;;;;;;;;;;20.30;44.50;;;;;;5076164;28;19924;-60
2023/05/07 08:54:29;;;;;;;;;;;20.30;44.60;;;;;;5076720;28;19927;-60
2023/05/07 08:56:56;;;;;;;;;;;20.30;44.60;;;;;;5092040;28;19954;-59
2023/05/07 08:59:23;;;;;;;;;;;20.30;44.60;;;;;;5092783;28;19927;-59
2023/05/07 09:01:49;;;;;;;;;;;20.30;44.50;;;;;;5093691;28;19920;-59
2023/05/07 09:04:16;;;;;;;;;;;20.30;44.50;;;;;;5092907;28;19970;-59
2023/05/07 09:06:47;;;;;;;;;;;20.40;44.60;;;;;;5076370;28;19981;-59
2023/05/07 09:09:15;;;;;;;;;;;20.30;45.10;;;;;;5076151;28;20368;-60
2023/05/07 09:11:42;;;;;;;;;;;20.40;44.60;;;;;;5076752;28;19927;-61
2023/05/07 09:14:09;;;;;;;;;;;20.40;44.60;;;;;;5076091;28;20014;-60
2023/05/07 09:16:36;;;;;;;;;;;20.40;44.60;;;;;;5092714;28;19927;-59
2023/05/07 09:19:02;;;;;;;;;;;20.40;44.60;;;;;;5076773;28;19943;-59
2023/05/07 09:21:29;;;;;;;;;;;20.40;44.70;;;;;;5092387;28;19926;-59
2023/05/07 09:23:57;;;;;;;;;;;20.40;44.70;;;;;;5091791;28;19927;-59
2023/05/07 09:26:28;;;;;;;;;;;20.40;44.70;;;;;;5093917;28;19928;-59
2023/05/07 09:28:55;;;;;;;;;;;20.40;44.60;;;;;;5090671;28;19942;-59
2023/05/07 09:31:23;;;;;;;;;;;20.40;44.60;;;;;;5076228;28;19966;-59
2023/05/07 09:33:49;;;;;;;;;;;20.40;44.60;;;;;;5089165;28;19959;-60
2023/05/07 09:36:16;;;;;;;;;;;20.40;44.70;;;;;;5091350;28;20322;-59
2023/05/07 09:38:43;;;;;;;;;;;20.40;44.60;;;;;;5090682;28;19920;-59
2023/05/07 09:41:12;;;;;;;;;;;20.40;44.60;;;;;;5092537;28;20365;-59
2023/05/07 09:43:39;;;;;;;;;;;20.40;44.60;;;;;;5091908;28;19924;-59
2023/05/07 09:46:07;;;;;;;;;;;20.40;44.60;;;;;;5091004;28;19992;-60
2023/05/07 09:48:36;;;;;;;;;;;20.40;44.60;;;;;;5091728;28;19959;-59
2023/05/07 09:51:03;;;;;;;;;;;20.40;44.60;;;;;;5091839;28;19920;-59
2023/05/07 09:53:30;;;;;;;;;;;20.40;44.60;;;;;;5089578;28;19997;-59
2023/05/07 09:55:57;;;;;;;;;;;20.40;44.60;;;;;;5073681;28;19920;-59
2023/05/07 09:58:25;;;;;;;;;;;20.40;44.60;;;;;;5082838;28;20011;-60
2023/05/07 10:00:52;;;;;;;;;;;20.40;44.70;;;;;;5089187;28;19920;-60
2023/05/07 10:03:18;;;;;;;;;;;20.40;44.60;;;;;;5075903;28;19966;-60
2023/05/07 10:05:47;;;;;;;;;;;20.40;44.60;;;;;;5075798;28;19963;-59
2023/05/07 10:08:16;;;;;;;;;;;20.40;44.60;;;;;;5091950;28;19919;-60
2023/05/07 10:10:43;;;;;;;;;;;20.40;44.70;;;;;;5094367;28;19942;-59
2023/05/07 10:13:10;;;;;;;;;;;20.40;44.70;;;;;;5093928;28;19920;-59
2023/05/07 10:15:38;;;;;;;;;;;20.40;44.80;;;;;;5092563;28;19970;-60
2023/05/07 10:18:05;;;;;;;;;;;20.40;44.80;;;;;;5079354;28;19981;-59
2023/05/07 10:20:32;;;;;;;;;;;20.40;44.90;;;;;;5076462;28;19973;-59
2023/05/07 10:22:59;;;;;;;;;;;20.40;44.90;;;;;;5079504;28;20055;-59
2023/05/07 10:25:27;;;;;;;;;;;20.50;45.00;;;;;;5097019;28;19928;-59
2023/05/07 10:27:53;;;;;;;;;;;20.40;44.90;;;;;;5076828;28;19949;-59
2023/05/07 10:30:23;;;;;;;;;;;20.40;45.00;;;;;;5097070;28;19920;-60
2023/05/07 10:32:51;;;;;;;;;;;20.50;45.00;;;;;;5096720;28;19974;-60
2023/05/07 10:35:24;;;;;;;;;;;20.50;45.10;;;;;;5076661;28;19970;-60
2023/05/07 10:37:51;;;;;;;;;;;20.50;45.00;;;;;;5093493;28;19922;-60
2023/05/07 10:40:19;;;;;;;;;;;20.50;45.00;;;;;;5098510;28;20348;-60
2023/05/07 10:42:56;;;;;;;;;;;20.50;45.00;;;;;;5094752;28;19951;-59
2023/05/07 10:45:23;;;;;;;;;;;20.50;45.00;;;;;;5093916;28;19966;-59
2023/05/07 10:48:10;;;;;;;;;;;20.50;45.00;;;;;;5095889;28;19989;-59
2023/05/07 10:50:37;;;;;;;;;;;20.50;45.10;;;;;;5096687;28;19923;-59
2023/05/07 10:53:28;;;;;;;;;;;20.50;45.10;;;;;;5093565;28;19965;-59
2023/05/07 10:56:14;;;;;;;;;;;20.50;45.00;;;;;;5080105;28;19923;-59
2023/05/07 10:58:40;;;;;;;;;;;20.50;45.00;;;;;;5096314;28;20354;-59
2023/05/07 11:01:07;;;;;;;;;;;20.50;45.00;;;;;;5076296;28;19973;-60
2023/05/07 11:03:35;;;;;;;;;;;20.50;44.90;;;;;;5095859;28;19920;-59
2023/05/07 11:06:20;;;;;;;;;;;20.50;44.90;;;;;;5092786;28;19934;-59
2023/05/07 11:08:53;;;;;;;;;;;20.50;44.90;;;;;;5095378;28;19965;-59
2023/05/07 11:11:20;;;;;;;;;;;20.50;45.50;;;;;;5093438;28;19985;-59
2023/05/07 11:13:47;;;;;;;;;;;20.50;44.90;;;;;;5077911;28;19987;-60
2023/05/07 11:16:17;;;;;;;;;;;20.50;44.90;;;;;;5091231;28;19920;-59
2023/05/07 11:18:49;;;;;;;;;;;20.50;44.90;;;;;;5094235;28;19965;-59
2023/05/07 11:21:31;;;;;;;;;;;20.50;44.90;;;;;;5094741;28;19924;-59
2023/05/07 11:24:01;;;;;;;;;;;20.50;44.90;;;;;;5077976;28;19920;-59
2023/05/07 11:26:29;;;;;;;;;;;20.50;44.80;;;;;;5077802;28;19920;-59
2023/05/07 11:28:56;;;;;;;;;;;20.50;44.80;;;;;;5094406;28;20380;-59
2023/05/07 11:31:27;;;;;;;;;;;20.50;44.80;;;;;;5094084;28;19920;-59
2023/05/07 11:33:56;;;;;;;;;;;20.50;44.80;;;;;;5095654;28;19973;-59
2023/05/07 11:36:23;;;;;;;;;;;20.50;44.80;;;;;;5077143;28;19924;-59
2023/05/07 11:38:50;;;;;;;;;;;20.50;44.80;;;;;;5094975;28;19920;-59
2023/05/07 11:41:17;;;;;;;;;;;20.50;44.80;;;;;;5093819;28;19920;-59
2023/05/07 11:43:57;;;;;;;;;;;20.50;44.80;;;;;;5094298;28;19920;-59
2023/05/07 11:46:24;;;;;;;;;;;20.50;44.80;;;;;;5077601;28;20372;-59
2023/05/07 11:48:50;;;;;;;;;;;20.50;44.80;;;;;;5075772;28;19973;-59
2023/05/07 11:51:22;;;;;;;;;;;20.50;44.80;;;;;;5077208;28;19920;-59
2023/05/07 11:53:48;;;;;;;;;;;20.50;44.80;;;;;;5092155;28;20012;-59
2023/05/07 11:56:16;;;;;;;;;;;20.50;44.80;;;;;;5075360;28;19942;-59
2023/05/07 11:58:42;;;;;;;;;;;20.50;44.80;;;;;;5094834;28;19924;-59
2023/05/07 12:01:10;;;;;;;;;;;20.50;44.80;;;;;;5091963;28;19920;-59
2023/05/07 12:03:37;;;;;;;;;;;20.50;44.80;;;;;;5095285;28;19931;-59
2023/05/07 12:06:04;;;;;;;;;;;20.50;44.80;;;;;;5095212;28;19926;-59
2023/05/07 12:08:32;;;;;;;;;;;20.50;44.80;;;;;;5093412;28;20278;-59
2023/05/07 12:10:59;;;;;;;;;;;20.50;44.80;;;;;;5094265;28;19924;-59
2023/05/07 12:13:26;;;;;;;;;;;20.50;44.80;;;;;;5076871;28;20076;-59
2023/05/07 12:15:52;;;;;;;;;;;20.50;44.80;;;;;;5093204;28;19920;-59
2023/05/07 12:18:19;;;;;;;;;;;20.50;44.80;;;;;;5089196;28;20184;-59
2023/05/07 12:20:46;;;;;;;;;;;20.50;44.80;;;;;;5094786;28;20480;-59
2023/05/07 12:23:13;;;;;;;;;;;20.50;44.80;;;;;;5094398;28;19923;-59
2023/05/07 12:25:46;;;;;;;;;;;20.50;44.80;;;;;;5093531;28;19945;-59
2023/05/07 12:28:13;;;;;;;;;;;20.50;44.80;;;;;;5091563;28;19973;-59
2023/05/07 12:30:40;;;;;;;;;;;20.50;44.80;;;;;;5076342;28;19966;-59
2023/05/07 12:33:07;;;;;;;;;;;20.50;44.80;;;;;;5073796;28;19993;-59
2023/05/07 12:35:36;;;;;;;;;;;20.50;44.70;;;;;;5092727;28;19920;-59
2023/05/07 12:38:04;;;;;;;;;;;20.50;44.70;;;;;;5074404;28;19924;-59
2023/05/07 12:40:36;;;;;;;;;;;20.50;44.80;;;;;;5092840;28;19920;-60
2023/05/07 12:43:04;;;;;;;;;;;20.50;44.80;;;;;;5094278;28;19963;-59
2023/05/07 12:45:31;;;;;;;;;;;20.50;44.70;;;;;;5093119;28;19924;-59
2023/05/07 12:47:57;;;;;;;;;;;20.50;44.80;;;;;;5089453;28;19969;-60
2023/05/07 12:50:24;;;;;;;;;;;20.50;44.70;;;;;;5072967;28;19920;-59
2023/05/07 12:52:51;;;;;;;;;;;20.50;44.70;;;;;;5088626;28;20316;-59
2023/05/07 12:55:17;;;;;;;;;;;20.50;44.70;;;;;;5090417;28;19920;-60
2023/05/07 12:57:46;;;;;;;;;;;20.50;44.70;;;;;;5091347;28;19928;-59
2023/05/07 13:00:15;;;;;;;;;;;20.50;44.70;;;;;;5090635;28;19919;-60
2023/05/07 13:02:44;;;;;;;;;;;20.50;44.70;;;;;;5087838;28;19989;-60
2023/05/07 13:05:10;;;;;;;;;;;20.50;44.80;;;;;;5090640;28;19928;-60
2023/05/07 13:07:37;;;;;;;;;;;20.50;44.70;;;;;;5073498;28;19924;-60
2023/05/07 13:10:04;;;;;;;;;;;20.50;44.70;;;;;;5089543;28;19938;-60
2023/05/07 13:12:31;;;;;;;;;;;20.50;44.70;;;;;;5089492;28;19942;-59
2023/05/07 13:14:58;;;;;;;;;;;20.50;44.70;;;;;;5089738;28;20301;-59
2023/05/07 13:17:27;;;;;;;;;;;20.50;44.70;;;;;;5072876;28;19926;-59
2023/05/07 13:19:53;;;;;;;;;;;20.50;44.70;;;;;;5088112;28;19974;-60
2023/05/07 13:22:20;;;;;;;;;;;20.50;44.70;;;;;;5089153;28;19935;-60
2023/05/07 13:24:47;;;;;;;;;;;20.50;44.70;;;;;;5090576;28;19928;-60
2023/05/07 13:27:14;;;;;;;;;;;20.50;44.70;;;;;;5073941;28;19927;-60
2023/05/07 13:29:40;;;;;;;;;;;20.50;44.70;;;;;;5093203;28;19924;-60
2023/05/07 13:32:07;;;;;;;;;;;20.60;44.80;;;;;;5075710;28;19955;-60
2023/05/07 13:34:35;;;;;;;;;;;20.50;44.70;;;;;;5090667;28;19966;-60
2023/05/07 13:37:02;;;;;;;;;;;20.50;44.70;;;;;;5072850;28;19966;-61
2023/05/07 13:39:29;;;;;;;;;;;20.60;44.80;;;;;;5090252;28;19970;-59
2023/05/07 13:41:55;;;;;;;;;;;20.50;44.70;;;;;;5088387;28;19967;-60
2023/05/07 13:44:22;;;;;;;;;;;20.60;44.80;;;;;;5092108;28;19927;-60
2023/05/07 13:46:49;;;;;;;;;;;20.60;44.80;;;;;;5094989;28;19924;-59
2023/05/07 13:49:17;;;;;;;;;;;20.60;44.80;;;;;;5096392;28;19924;-59
2023/05/07 13:51:46;;;;;;;;;;;20.60;44.80;;;;;;5094649;28;19920;-60
2023/05/07 13:54:12;;;;;;;;;;;20.60;44.80;;;;;;5096526;28;19920;-60
2023/05/07 13:56:40;;;;;;;;;;;20.60;44.80;;;;;;5092534;28;20339;-61
2023/05/07 13:59:07;;;;;;;;;;;20.60;44.80;;;;;;5092532;28;20363;-61
2023/05/07 14:01:36;;;;;;;;;;;20.60;44.80;;;;;;5095615;28;19927;-60
2023/05/07 14:04:03;;;;;;;;;;;20.60;44.80;;;;;;5094537;28;19964;-61
2023/05/07 14:06:30;;;;;;;;;;;20.60;44.80;;;;;;5095534;28;19919;-60
2023/05/07 14:08:58;;;;;;;;;;;20.60;44.80;;;;;;5091193;28;20273;-61
2023/05/07 14:11:25;;;;;;;;;;;20.60;44.80;;;;;;5092493;28;19926;-61
2023/05/07 14:13:56;;;;;;;;;;;20.60;44.80;;;;;;5092687;28;19946;-60
2023/05/07 14:16:23;;;;;;;;;;;20.60;44.80;;;;;;5094367;28;19970;-60
2023/05/07 14:18:50;;;;;;;;;;;20.60;44.80;;;;;;5095722;28;19973;-60